Map

Track Data

SID SEASON NUMBER BASIN SUBBASIN NAME ISO_TIME NATURE LAT LON WMO_WIND WMO_PRES WMO_AGENCY TRACK_TYPE DIST2LAND LANDFALL IFLAG USA_AGENCY USA_ATCF_ID USA_LAT USA_LON USA_RECORD USA_STATUS USA_WIND USA_PRES USA_SSHS USA_R34_NE USA_R34_SE USA_R34_SW USA_R34_NW USA_R50_NE USA_R50_SE USA_R50_SW USA_R50_NW USA_R64_NE USA_R64_SE USA_R64_SW USA_R64_NW USA_POCI USA_ROCI USA_RMW USA_EYE TOKYO_LAT TOKYO_LON TOKYO_GRADE TOKYO_WIND TOKYO_PRES TOKYO_R50_DIR TOKYO_R50_LONG TOKYO_R50_SHORT TOKYO_R30_DIR TOKYO_R30_LONG TOKYO_R30_SHORT TOKYO_LAND CMA_LAT CMA_LON CMA_CAT CMA_WIND CMA_PRES HKO_LAT HKO_LON HKO_CAT HKO_WIND HKO_PRES NEWDELHI_LAT NEWDELHI_LON NEWDELHI_GRADE NEWDELHI_WIND NEWDELHI_PRES NEWDELHI_CI NEWDELHI_DP NEWDELHI_POCI REUNION_LAT REUNION_LON REUNION_TYPE REUNION_WIND REUNION_PRES REUNION_TNUM REUNION_CI REUNION_RMW REUNION_R34_NE REUNION_R34_SE REUNION_R34_SW REUNION_R34_NW REUNION_R50_NE REUNION_R50_SE REUNION_R50_SW REUNION_R50_NW REUNION_R64_NE REUNION_R64_SE REUNION_R64_SW REUNION_R64_NW BOM_LAT BOM_LON BOM_TYPE BOM_WIND BOM_PRES BOM_TNUM BOM_CI BOM_RMW BOM_R34_NE BOM_R34_SE BOM_R34_SW BOM_R34_NW BOM_R50_NE BOM_R50_SE BOM_R50_SW BOM_R50_NW BOM_R64_NE BOM_R64_SE BOM_R64_SW BOM_R64_NW BOM_ROCI BOM_POCI BOM_EYE BOM_POS_METHOD BOM_PRES_METHOD NADI_LAT NADI_LON NADI_CAT NADI_WIND NADI_PRES WELLINGTON_LAT WELLINGTON_LON WELLINGTON_WIND WELLINGTON_PRES DS824_LAT DS824_LON DS824_STAGE DS824_WIND DS824_PRES TD9636_LAT TD9636_LON TD9636_STAGE TD9636_WIND TD9636_PRES TD9635_LAT TD9635_LON TD9635_WIND TD9635_PRES TD9635_ROCI NEUMANN_LAT NEUMANN_LON NEUMANN_CLASS NEUMANN_WIND NEUMANN_PRES MLC_LAT MLC_LON MLC_CLASS MLC_WIND MLC_PRES USA_GUST BOM_GUST BOM_GUST_PER REUNION_GUST REUNION_GUST_PER USA_SEAHGT USA_SEARAD_NE USA_SEARAD_SE USA_SEARAD_SW USA_SEARAD_NW STORM_SPEED STORM_DIR
1919282N13129 1919 43 WP MM NOT_NAMED 1919-10-08 22:00:00 NR 12.8000 128.700 main 354 320 __________O___ -1 12.8000 128.700 2 13 309
1919282N13129 1919 43 WP MM NOT_NAMED 1919-10-09 00:00:00 NR 13.0803 128.342 main 320 288 __________P___ -1 13.0803 128.342 2 13 308
1919282N13129 1919 43 WP MM NOT_NAMED 1919-10-09 03:00:00 NR 13.4951 127.801 main 288 264 __________P___ -1 13.4951 127.801 2 13 308
1919282N13129 1919 43 WP MM NOT_NAMED 1919-10-09 06:00:00 NR 13.8970 127.252 main 272 252 __________P___ -1 13.8970 127.252 2 13 306
1919282N13129 1919 43 WP MM NOT_NAMED 1919-10-09 09:00:00 NR 14.2785 126.690 main 252 233 __________P___ -1 14.2785 126.690 2 13 305
1919282N13129 1919 43 WP MM NOT_NAMED 1919-10-09 10:00:00 NR 14.4000 126.500 main 233 199 __________O___ -1 14.4000 126.500 2 13 302
1919282N13129 1919 43 WP MM NOT_NAMED 1919-10-09 12:00:00 NR 14.6331 126.114 main 199 170 __________P___ -1 14.6331 126.114 2 13 301
1919282N13129 1919 43 WP MM NOT_NAMED 1919-10-09 15:00:00 NR 14.9578 125.522 main 170 154 __________P___ -1 14.9578 125.522 2 13 298
1919282N13129 1919 43 WP MM NOT_NAMED 1919-10-09 18:00:00 NR 15.2528 124.918 main 159 151 __________P___ -1 15.2528 124.918 2 13 296
1919282N13129 1919 43 WP MM NOT_NAMED 1919-10-09 21:00:00 NR 15.5181 124.306 main 167 167 __________P___ -1 15.5181 124.306 2 13 294
1919282N13129 1919 43 WP MM NOT_NAMED 1919-10-09 22:00:00 NR 15.6000 124.100 main 179 166 __________O___ -1 15.6000 124.100 2 13 293
1919282N13129 1919 43 WP MM NOT_NAMED 1919-10-10 00:00:00 NR 15.7715 123.692 main 166 98 __________P___ -1 15.7715 123.692 2 13 292
1919282N13129 1919 43 WP MM NOT_NAMED 1919-10-10 03:00:00 NR 16.0042 123.073 main 98 21 __________P___ -1 16.0042 123.073 2 13 290
1919282N13129 1919 43 WP MM NOT_NAMED 1919-10-10 06:00:00 NR 16.2018 122.447 main 21 0 __________P___ -1 16.2018 122.447 2 13 286
1919282N13129 1919 43 WP MM NOT_NAMED 1919-10-10 09:00:00 NR 16.3581 121.813 main 0 0 __________P___ -1 16.3581 121.813 2 13 284
1919282N13129 1919 43 WP MM NOT_NAMED 1919-10-10 10:00:00 NR 16.4000 121.600 main 0 0 __________O___ -1 16.4000 121.600 2 13 281
1919282N13129 1919 43 WP MM NOT_NAMED 1919-10-10 12:00:00 NR 16.4781 121.154 main 0 0 __________P___ -1 16.4781 121.154 2 13 278
1919282N13129 1919 43 WP MM NOT_NAMED 1919-10-10 15:00:00 NR 16.5578 120.478 main 0 0 __________P___ -1 16.5578 120.478 2 13 275
1919282N13129 1919 43 WP MM NOT_NAMED 1919-10-10 18:00:00 NR 16.5977 119.817 main 33 33 __________P___ -1 16.5977 119.817 2 12 272
1919282N13129 1919 43 WP MM NOT_NAMED 1919-10-10 21:00:00 NR 16.6042 119.194 main 72 72 __________P___ -1 16.6042 119.194 2 12 270
1919282N13129 1919 43 WP MM NOT_NAMED 1919-10-10 22:00:00 NR 16.6000 119.000 main 91 91 __________O___ -1 16.6000 119.000 2 11 269
1919282N13129 1919 43 WP MM NOT_NAMED 1919-10-11 00:00:00 NR 16.5914 118.643 main 132 132 __________P___ -1 16.5914 118.643 2 10 267
1919282N13129 1919 43 WP MM NOT_NAMED 1919-10-11 03:00:00 NR 16.5539 118.152 main 173 179 __________P___ -1 16.5539 118.152 2 9 264
1919282N13129 1919 43 WP MM NOT_NAMED 1919-10-11 06:00:00 NR 16.4953 117.695 main 220 220 __________P___ -1 16.4953 117.695 2 9 262
1919282N13129 1919 43 WP MM NOT_NAMED 1919-10-11 09:00:00 NR 16.4246 117.250 main 270 270 __________P___ -1 16.4246 117.250 2 9 261
1919282N13129 1919 43 WP MM NOT_NAMED 1919-10-11 10:00:00 NR 16.4000 117.100 main 281 281 __________O___ -1 16.4000 117.100 2 9 261
1919282N13129 1919 43 WP MM NOT_NAMED 1919-10-11 12:00:00 NR 16.3552 116.796 main 312 312 __________P___ -1 16.3552 116.796 2 9 261
1919282N13129 1919 43 WP MM NOT_NAMED 1919-10-11 15:00:00 NR 16.2820 116.341 main 364 364 __________P___ -1 16.2820 116.341 2 9 260
1919282N13129 1919 43 WP MM NOT_NAMED 1919-10-11 18:00:00 NR 16.2045 115.873 main 406 417 __________P___ -1 16.2045 115.873 2 9 260
1919282N13129 1919 43 WP MM NOT_NAMED 1919-10-11 21:00:00 NR 16.1259 115.375 main 459 470 __________P___ -1 16.1259 115.375 2 10 261
1919282N13129 1919 43 WP MM NOT_NAMED 1919-10-11 22:00:00 NR 16.1000 115.200 main 481 481 __________O___ -1 16.1000 115.200 2 11 261
1919282N13129 1919 43 WP MM NOT_NAMED 1919-10-12 00:00:00 NR 16.0395 114.828 main 523 509 __________P___ -1 16.0395 114.828 2 11 261
1919282N13129 1919 43 WP MM NOT_NAMED 1919-10-12 03:00:00 NR 15.9485 114.239 main 509 462 __________P___ -1 15.9485 114.239 2 12 262
1919282N13129 1919 43 WP MM NOT_NAMED 1919-10-12 06:00:00 NR 15.8683 113.627 main 462 426 __________P___ -1 15.8683 113.627 2 12 263
1919282N13129 1919 43 WP MM NOT_NAMED 1919-10-12 09:00:00 NR 15.8115 113.006 main 426 412 __________P___ -1 15.8115 113.006 2 12 265
1919282N13129 1919 43 WP MM NOT_NAMED 1919-10-12 10:00:00 NR 15.8000 112.800 main 412 374 __________O___ -1 15.8000 112.800 2 12 268
1919282N13129 1919 43 WP MM NOT_NAMED 1919-10-12 12:00:00 NR 15.7898 112.392 main 374 314 __________P___ -1 15.7898 112.392 2 12 270
1919282N13129 1919 43 WP MM NOT_NAMED 1919-10-12 15:00:00 NR 15.8015 111.788 main 314 255 __________P___ -1 15.8015 111.788 2 12 272
1919282N13129 1919 43 WP MM NOT_NAMED 1919-10-12 18:00:00 NR 15.8362 111.191 main 255 198 __________P___ -1 15.8362 111.191 2 11 274
1919282N13129 1919 43 WP MM NOT_NAMED 1919-10-12 21:00:00 NR 15.8833 110.597 main 198 178 __________P___ -1 15.8833 110.597 2 11 275
1919282N13129 1919 43 WP MM NOT_NAMED 1919-10-12 22:00:00 NR 15.9000 110.400 main 178 __________O___ -1 15.9000 110.400 4 11 275

Digital Typhoon Data and Search

About IBTrACS Database

This database is a web-friendly format of International Best Track Archive for Climate Stewardship (IBTrACS), a global best track data archive curated by NOAA dating back to 1842.

Updated: 2021-12-03